createdAt,value
2023-04-06T00:02:30.230Z,8.30
2023-04-06T00:05:16.724Z,10.98
2023-04-06T00:08:02.823Z,12.55
2023-04-06T00:10:49.303Z,7.75
2023-04-06T00:13:35.789Z,10.40
2023-04-06T00:16:24.331Z,8.77
2023-04-06T00:19:11.344Z,9.23
2023-04-06T00:21:58.069Z,11.13
2023-04-06T00:24:44.356Z,11.60
2023-04-06T00:27:30.818Z,9.52
2023-04-06T00:30:16.993Z,8.15
2023-04-06T00:33:03.140Z,11.82
2023-04-06T00:35:49.698Z,10.13
2023-04-06T00:38:35.862Z,11.63
2023-04-06T00:41:22.250Z,9.90
2023-04-06T00:44:08.464Z,10.15
2023-04-06T00:46:54.560Z,8.40
2023-04-06T00:49:40.837Z,12.38
2023-04-06T00:52:27.674Z,10.73
2023-04-06T00:55:14.183Z,10.73
2023-04-06T00:58:02.837Z,10.38
2023-04-06T01:00:53.974Z,10.35
2023-04-06T01:03:43.382Z,12.40
2023-04-06T01:06:31.959Z,9.57
2023-04-06T01:09:22.280Z,10.50
2023-04-06T01:12:09.855Z,9.65
2023-04-06T01:14:56.167Z,9.25
2023-04-06T01:17:43.126Z,13.48
2023-04-06T01:20:33.829Z,11.55
2023-04-06T01:23:21.872Z,11.40
2023-04-06T01:26:08.588Z,11.90
2023-04-06T01:28:55.215Z,15.55
2023-04-06T01:31:49.078Z,17.80
2023-04-06T01:34:35.865Z,12.02
2023-04-06T01:37:24.408Z,7.53
2023-04-06T01:40:14.734Z,10.00
2023-04-06T01:43:08.654Z,8.30
2023-04-06T01:46:06.463Z,8.57
2023-04-06T01:48:56.524Z,8.30
2023-04-06T01:51:51.483Z,10.23
2023-04-06T01:54:37.721Z,12.23
2023-04-06T01:57:36.143Z,9.25
2023-04-06T02:00:34.067Z,8.35
2023-04-06T02:03:21.335Z,8.48
2023-04-06T02:06:11.813Z,7.93
2023-04-06T02:08:59.917Z,10.40
2023-04-06T02:11:46.321Z,9.05
2023-04-06T02:14:32.166Z,9.77
2023-04-06T02:17:20.574Z,7.70
2023-04-06T02:20:07.520Z,11.77
2023-04-06T02:22:53.820Z,8.20
2023-04-06T02:25:41.255Z,6.00
2023-04-06T02:31:15.902Z,10.32
2023-04-06T02:34:03.782Z,8.90
2023-04-06T02:36:52.162Z,9.13
2023-04-06T02:39:38.605Z,7.25
2023-04-06T02:42:28.024Z,7.78
2023-04-06T02:45:14.614Z,9.90
2023-04-06T02:48:05.145Z,6.95
2023-04-06T02:50:52.601Z,7.68
2023-04-06T02:53:38.689Z,8.48
2023-04-06T02:56:25.781Z,13.27
2023-04-06T02:59:12.686Z,7.57
2023-04-06T03:02:03.020Z,8.20
2023-04-06T03:04:50.463Z,7.50
2023-04-06T03:07:46.034Z,7.60
2023-04-06T03:10:46.425Z,9.02
2023-04-06T03:13:34.562Z,12.68
2023-04-06T03:16:21.652Z,9.02
2023-04-06T03:21:55.495Z,8.02
2023-04-06T03:24:43.656Z,11.07
2023-04-06T03:27:29.585Z,10.43
2023-04-06T03:33:06.238Z,8.63
2023-04-06T03:35:58.461Z,8.32
2023-04-06T03:38:46.204Z,7.35
2023-04-06T03:41:33.945Z,9.75
2023-04-06T03:44:43.165Z,8.48
2023-04-06T03:47:29.387Z,7.90
2023-04-06T03:50:19.629Z,8.48
2023-04-06T03:53:05.628Z,10.75
2023-04-06T03:55:52.241Z,8.07
2023-04-06T03:58:38.286Z,14.85
2023-04-06T04:01:24.257Z,14.63
2023-04-06T04:04:11.616Z,10.32
2023-04-06T04:06:57.676Z,8.73
2023-04-06T04:09:43.636Z,9.77
2023-04-06T04:12:31.253Z,11.40
2023-04-06T04:15:18.291Z,8.48
2023-04-06T04:18:04.530Z,10.18
2023-04-06T04:20:50.792Z,7.93
2023-04-06T04:23:40.190Z,6.70
2023-04-06T04:26:26.744Z,9.70
2023-04-06T04:29:13.684Z,11.15
2023-04-06T04:32:00.359Z,8.45
2023-04-06T04:34:46.823Z,8.55
2023-04-06T04:37:43.012Z,7.72
2023-04-06T04:40:30.651Z,9.82
2023-04-06T04:43:26.188Z,9.07
2023-04-06T04:46:12.919Z,9.30
2023-04-06T04:49:03.183Z,11.48
2023-04-06T04:51:53.658Z,10.95
2023-04-06T04:54:50.382Z,8.57
2023-04-06T05:00:29.366Z,9.45
2023-04-06T05:03:23.303Z,8.73
2023-04-06T05:06:16.494Z,8.15
2023-04-06T05:09:03.452Z,13.93
2023-04-06T05:11:51.254Z,7.68
2023-04-06T05:14:37.604Z,9.88
2023-04-06T05:17:27.690Z,8.65
2023-04-06T05:20:14.947Z,9.32
2023-04-06T05:23:07.460Z,12.35
2023-04-06T05:25:54.164Z,11.20
2023-04-06T05:28:43.554Z,9.02
2023-04-06T05:31:31.325Z,9.65
2023-04-06T05:34:18.402Z,11.00
2023-04-06T05:37:05.707Z,9.52
2023-04-06T05:39:52.078Z,13.65
2023-04-06T05:42:43.627Z,14.93
2023-04-06T05:45:31.274Z,8.13
2023-04-06T05:48:18.551Z,8.30
2023-04-06T05:51:07.227Z,9.35
2023-04-06T05:54:02.467Z,11.98
2023-04-06T05:56:49.282Z,9.02
2023-04-06T05:59:35.676Z,10.52
2023-04-06T06:02:23.048Z,9.63
2023-04-06T06:05:12.012Z,11.02
2023-04-06T06:08:02.986Z,10.10
2023-04-06T06:10:50.742Z,8.20
2023-04-06T06:13:40.414Z,13.00
2023-04-06T06:16:26.841Z,10.60
2023-04-06T06:19:13.069Z,10.25
2023-04-06T06:22:00.939Z,9.68
2023-04-06T06:24:47.244Z,8.52
2023-04-06T06:27:35.192Z,8.23
2023-04-06T06:30:23.654Z,13.18
2023-04-06T06:33:10.630Z,8.07
2023-04-06T06:35:56.735Z,10.18
2023-04-06T06:38:43.166Z,10.27
2023-04-06T06:41:29.148Z,10.52
2023-04-06T06:44:16.143Z,10.63
2023-04-06T06:47:02.357Z,8.57
2023-04-06T06:49:48.244Z,11.85
2023-04-06T06:52:34.346Z,9.48
2023-04-06T06:55:21.149Z,13.48
2023-04-06T06:58:07.818Z,8.10
2023-04-06T07:00:58.364Z,9.18
2023-04-06T07:03:44.856Z,14.30
2023-04-06T07:06:31.335Z,12.75
2023-04-06T07:09:17.488Z,12.00
2023-04-06T07:12:03.594Z,9.75
2023-04-06T07:14:49.959Z,10.32
2023-04-06T07:17:35.995Z,9.05
2023-04-06T07:20:22.477Z,8.32
2023-04-06T07:23:08.875Z,9.40
2023-04-06T07:25:55.708Z,10.93
2023-04-06T07:28:42.193Z,9.25
2023-04-06T07:34:15.488Z,7.63
2023-04-06T07:37:03.882Z,9.82
2023-04-06T07:39:52.793Z,8.73
2023-04-06T07:42:39.170Z,6.28
2023-04-06T07:45:26.856Z,8.23
2023-04-06T07:48:13.819Z,8.27
2023-04-06T07:51:07.481Z,7.90
2023-04-06T07:53:57.856Z,7.32
2023-04-06T07:56:43.980Z,9.18
2023-04-06T07:59:30.178Z,8.20
2023-04-06T08:02:16.737Z,6.20
2023-04-06T08:05:02.974Z,7.28
2023-04-06T08:07:49.248Z,8.45
2023-04-06T08:10:35.581Z,6.78
2023-04-06T08:13:22.371Z,6.90
2023-04-06T08:16:09.142Z,9.30
2023-04-06T08:18:55.327Z,7.82
2023-04-06T08:21:42.292Z,6.93
2023-04-06T08:24:28.602Z,9.20
2023-04-06T08:27:15.668Z,7.80
2023-04-06T08:30:02.526Z,8.77
2023-04-06T08:32:48.670Z,7.93
2023-04-06T08:35:35.038Z,8.15
2023-04-06T08:38:21.384Z,8.18
2023-04-06T08:41:14.764Z,6.63
2023-04-06T08:44:02.749Z,8.02
2023-04-06T08:46:49.006Z,9.82
2023-04-06T08:49:38.219Z,8.20
2023-04-06T08:52:26.278Z,7.82
2023-04-06T08:55:12.780Z,7.15
2023-04-06T08:58:00.600Z,7.13
2023-04-06T09:00:47.005Z,8.70
2023-04-06T09:03:38.183Z,8.80
2023-04-06T09:06:24.323Z,8.77
2023-04-06T09:09:10.351Z,7.90
2023-04-06T09:11:57.117Z,7.55
2023-04-06T09:14:43.839Z,9.27
2023-04-06T09:17:34.008Z,10.30
2023-04-06T09:20:27.319Z,8.90
2023-04-06T09:23:19.859Z,7.85
2023-04-06T09:26:17.308Z,9.48
2023-04-06T09:29:04.526Z,9.27
2023-04-06T09:31:50.882Z,8.45
2023-04-06T09:34:39.767Z,8.65
2023-04-06T09:37:29.151Z,8.23
2023-04-06T09:40:15.927Z,7.72
2023-04-06T09:43:04.335Z,7.53
2023-04-06T09:45:50.782Z,8.23
2023-04-06T09:48:38.111Z,8.77
2023-04-06T09:51:27.257Z,10.38
2023-04-06T09:54:19.216Z,8.52
2023-04-06T09:57:11.312Z,9.55
2023-04-06T10:00:09.668Z,8.48
2023-04-06T10:03:07.088Z,8.95
2023-04-06T10:06:03.126Z,8.60
2023-04-06T10:08:52.917Z,8.85
2023-04-06T10:11:39.560Z,11.63
2023-04-06T10:14:26.122Z,8.90
2023-04-06T10:20:19.237Z,10.20
2023-04-06T10:23:17.022Z,6.93
2023-04-06T10:26:04.038Z,7.68
2023-04-06T10:28:51.686Z,8.43
2023-04-06T10:31:44.206Z,8.95
2023-04-06T10:34:39.033Z,10.32
2023-04-06T10:37:25.347Z,10.55
2023-04-06T10:40:28.237Z,8.73
2023-04-06T10:43:15.210Z,8.27
2023-04-06T10:46:01.979Z,11.00
2023-04-06T10:48:48.298Z,8.25
2023-04-06T10:51:38.694Z,8.45
2023-04-06T10:54:26.611Z,8.70
2023-04-06T10:57:13.825Z,9.15
2023-04-06T10:59:59.712Z,9.55
2023-04-06T11:02:45.903Z,10.20
2023-04-06T11:05:32.426Z,9.40
2023-04-06T11:08:31.081Z,8.93
2023-04-06T11:11:22.162Z,8.18
2023-04-06T11:14:10.968Z,10.75
2023-04-06T11:16:56.973Z,9.02
2023-04-06T11:19:43.552Z,8.50
2023-04-06T11:22:29.712Z,8.93
2023-04-06T11:25:17.910Z,8.10
2023-04-06T11:28:03.962Z,7.60
2023-04-06T11:30:50.283Z,9.18
2023-04-06T11:33:38.620Z,9.23
2023-04-06T11:36:28.394Z,7.40
2023-04-06T11:39:19.432Z,9.27
2023-04-06T11:42:08.523Z,8.05
2023-04-06T11:44:57.380Z,8.48
2023-04-06T11:47:44.899Z,9.63
2023-04-06T11:50:36.095Z,8.15
2023-04-06T11:53:22.305Z,7.75
2023-04-06T11:56:08.479Z,6.40
2023-04-06T11:59:00.869Z,8.23
2023-04-06T12:01:47.296Z,7.88
2023-04-06T12:04:33.873Z,8.65
2023-04-06T12:07:20.377Z,8.55
2023-04-06T12:12:52.573Z,8.63
2023-04-06T12:15:39.234Z,7.28
2023-04-06T12:18:26.371Z,8.63
2023-04-06T12:21:12.601Z,7.03
2023-04-06T12:23:59.385Z,6.75
2023-04-06T12:26:46.167Z,7.25
2023-04-06T12:29:32.387Z,6.82
2023-04-06T12:32:18.734Z,7.90
2023-04-06T12:35:05.420Z,7.60
2023-04-06T12:37:51.770Z,8.38
2023-04-06T12:40:39.442Z,6.90
2023-04-06T12:43:25.600Z,6.45
2023-04-06T12:46:12.855Z,8.38
2023-04-06T12:49:00.103Z,7.72
2023-04-06T12:51:46.670Z,7.40
2023-04-06T12:54:32.925Z,6.78
2023-04-06T12:57:19.088Z,7.53
2023-04-06T13:02:55.573Z,7.72
2023-04-06T13:05:46.865Z,6.43
2023-04-06T13:08:33.198Z,7.72
2023-04-06T13:11:21.762Z,7.05
2023-04-06T13:14:08.262Z,6.30
2023-04-06T13:16:54.296Z,6.13
2023-04-06T13:19:40.480Z,6.60
2023-04-06T13:22:26.569Z,5.95
2023-04-06T13:25:12.761Z,6.90
2023-04-06T13:27:59.241Z,6.43
2023-04-06T13:30:49.710Z,7.75
2023-04-06T13:33:36.138Z,6.40
2023-04-06T13:36:22.189Z,6.57
2023-04-06T13:39:08.024Z,6.78
2023-04-06T13:41:57.809Z,6.80
2023-04-06T13:44:44.482Z,6.85
2023-04-06T13:50:18.988Z,6.10
2023-04-06T13:53:05.524Z,6.55
2023-04-06T13:55:55.788Z,7.57
2023-04-06T13:58:42.033Z,6.72
2023-04-06T14:01:28.681Z,7.43
2023-04-06T14:04:14.772Z,6.05
2023-04-06T14:07:02.114Z,5.78
2023-04-06T14:09:48.394Z,6.63
2023-04-06T14:12:34.387Z,5.85
2023-04-06T14:15:20.302Z,5.88
2023-04-06T14:18:06.924Z,6.55
2023-04-06T14:20:57.103Z,6.25
2023-04-06T14:23:43.546Z,5.18
2023-04-06T14:26:30.463Z,6.72
2023-04-06T14:29:17.623Z,6.55
2023-04-06T14:32:03.550Z,7.93
2023-04-06T14:34:49.847Z,7.38
2023-04-06T14:37:36.061Z,6.45
2023-04-06T14:40:22.211Z,7.03
2023-04-06T14:43:08.644Z,6.22
2023-04-06T14:45:55.255Z,5.97
2023-04-06T14:48:41.456Z,8.02
2023-04-06T14:51:30.592Z,6.18
2023-04-06T14:54:16.750Z,6.53
2023-04-06T14:57:02.971Z,6.63
2023-04-06T14:59:49.237Z,4.93
2023-04-06T15:05:22.164Z,7.25
2023-04-06T15:08:10.275Z,6.22
2023-04-06T15:11:00.265Z,6.30
2023-04-06T15:13:46.554Z,5.75
2023-04-06T15:16:33.737Z,5.80
2023-04-06T15:19:20.204Z,6.00
2023-04-06T15:22:06.277Z,6.15
2023-04-06T15:24:52.469Z,6.25
2023-04-06T15:27:38.535Z,5.95
2023-04-06T15:30:24.479Z,5.78
2023-04-06T15:33:10.778Z,6.03
2023-04-06T15:35:57.381Z,7.00
2023-04-06T15:38:43.357Z,6.28
2023-04-06T15:41:29.654Z,5.20
2023-04-06T15:44:15.876Z,5.60
2023-04-06T15:47:02.378Z,6.40
2023-04-06T15:49:48.715Z,6.25
2023-04-06T15:52:35.853Z,5.80
2023-04-06T15:55:22.088Z,5.10
2023-04-06T15:58:08.565Z,6.90
2023-04-06T16:00:54.958Z,7.65
2023-04-06T16:03:41.042Z,8.27
2023-04-06T16:06:27.569Z,8.05
2023-04-06T16:09:13.818Z,5.72
2023-04-06T16:11:59.979Z,5.72
2023-04-06T16:14:46.835Z,5.57
2023-04-06T16:17:33.077Z,6.60
2023-04-06T16:20:18.994Z,5.95
2023-04-06T16:23:05.730Z,6.72
2023-04-06T16:25:53.432Z,6.45
2023-04-06T16:28:39.424Z,6.15
2023-04-06T16:31:26.087Z,6.60
2023-04-06T16:34:12.388Z,5.35
2023-04-06T16:36:58.751Z,6.07
2023-04-06T16:39:45.036Z,5.82
2023-04-06T16:42:31.298Z,6.25
2023-04-06T16:45:17.636Z,6.03
2023-04-06T16:48:04.008Z,5.28
2023-04-06T16:50:50.098Z,5.88
2023-04-06T16:53:38.800Z,5.30
2023-04-06T16:56:24.986Z,5.68
2023-04-06T16:59:11.538Z,5.85
2023-04-06T17:01:57.779Z,6.03
2023-04-06T17:04:44.215Z,6.05
2023-04-06T17:07:35.541Z,7.00
2023-04-06T17:10:28.837Z,5.60
2023-04-06T17:13:20.645Z,7.30
2023-04-06T17:16:07.263Z,5.45
2023-04-06T17:18:53.352Z,6.05
2023-04-06T17:21:42.074Z,5.45
2023-04-06T17:24:28.223Z,7.18
2023-04-06T17:27:14.191Z,6.53
2023-04-06T17:30:06.284Z,8.95
2023-04-06T17:32:52.421Z,7.32
2023-04-06T17:35:38.949Z,6.03
2023-04-06T17:38:25.493Z,7.85
2023-04-06T17:41:13.411Z,5.35
2023-04-06T17:43:59.683Z,7.00
2023-04-06T17:46:46.433Z,7.18
2023-04-06T17:49:32.816Z,6.63
2023-04-06T17:52:18.743Z,8.10
2023-04-06T17:55:05.431Z,6.63
2023-04-06T17:57:51.709Z,8.85
2023-04-06T18:00:38.114Z,8.18
2023-04-06T18:03:24.209Z,8.10
2023-04-06T18:06:11.924Z,7.45
2023-04-06T18:08:59.362Z,6.70
2023-04-06T18:11:46.114Z,9.38
2023-04-06T18:14:32.202Z,9.02
2023-04-06T18:17:18.134Z,7.93
2023-04-06T18:20:04.636Z,9.90
2023-04-06T18:25:42.036Z,8.55
2023-04-06T18:28:28.011Z,9.52
2023-04-06T18:31:14.324Z,8.13
2023-04-06T18:34:01.893Z,7.65
2023-04-06T18:36:48.463Z,8.30
2023-04-06T18:42:21.852Z,8.38
2023-04-06T18:45:08.326Z,8.85
2023-04-06T18:47:57.123Z,9.30
2023-04-06T18:51:03.145Z,7.63
2023-04-06T18:53:49.224Z,8.98
2023-04-06T18:56:37.120Z,8.30
2023-04-06T18:59:23.730Z,8.10
2023-04-06T19:02:09.790Z,8.77
2023-04-06T19:04:56.492Z,11.07
2023-04-06T19:10:29.596Z,8.32
2023-04-06T19:16:02.100Z,11.40
2023-04-06T19:18:48.697Z,10.20
2023-04-06T19:21:34.825Z,8.45
2023-04-06T19:24:21.028Z,20.50
2023-04-06T19:27:07.180Z,14.43
2023-04-06T19:29:53.607Z,11.30
2023-04-06T19:32:40.070Z,18.98
2023-04-06T19:35:26.618Z,14.70
2023-04-06T19:38:12.963Z,16.23
2023-04-06T19:41:00.299Z,15.15
2023-04-06T19:43:46.678Z,13.35
2023-04-06T19:46:33.410Z,14.35
2023-04-06T19:49:19.901Z,17.55
2023-04-06T19:52:06.495Z,15.02
2023-04-06T19:54:52.959Z,11.60
2023-04-06T19:57:38.949Z,12.00
2023-04-06T20:00:24.993Z,12.35
2023-04-06T20:03:11.931Z,9.32
2023-04-06T20:05:58.306Z,11.13
2023-04-06T20:08:45.118Z,10.55
2023-04-06T20:11:33.796Z,9.75
2023-04-06T20:14:20.489Z,11.65
2023-04-06T20:19:53.942Z,13.70
2023-04-06T20:22:41.265Z,14.23
2023-04-06T20:25:27.232Z,14.27
2023-04-06T20:28:13.270Z,11.27
2023-04-06T20:31:00.550Z,9.18
2023-04-06T20:33:47.305Z,11.15
2023-04-06T20:36:34.304Z,11.98
2023-04-06T20:39:20.223Z,11.95
2023-04-06T20:42:08.365Z,11.70
2023-04-06T20:44:54.665Z,12.32
2023-04-06T20:47:40.898Z,10.85
2023-04-06T20:50:27.824Z,11.90
2023-04-06T20:53:13.744Z,12.40
2023-04-06T20:56:01.716Z,12.55
2023-04-06T20:58:48.392Z,12.85
2023-04-06T21:01:34.797Z,11.30
2023-04-06T21:04:22.887Z,15.63
2023-04-06T21:07:09.664Z,12.07
2023-04-06T21:09:56.471Z,11.80
2023-04-06T21:12:42.723Z,14.07
2023-04-06T21:15:28.619Z,12.20
2023-04-06T21:18:14.591Z,10.18
2023-04-06T21:21:01.132Z,13.55
2023-04-06T21:23:47.190Z,13.80
2023-04-06T21:26:33.475Z,13.35
2023-04-06T21:29:21.027Z,12.63
2023-04-06T21:32:07.352Z,13.93
2023-04-06T21:34:53.188Z,12.13
2023-04-06T21:37:39.116Z,11.75
2023-04-06T21:40:25.354Z,11.43
2023-04-06T21:43:11.709Z,12.43
2023-04-06T21:45:57.769Z,11.60
2023-04-06T21:48:43.675Z,12.05
2023-04-06T21:51:29.776Z,13.07
2023-04-06T21:54:15.895Z,13.00
2023-04-06T21:57:02.404Z,14.90
2023-04-06T21:59:48.635Z,12.55
2023-04-06T22:02:34.801Z,11.98
2023-04-06T22:05:21.471Z,10.23
2023-04-06T22:08:08.450Z,10.80
2023-04-06T22:10:58.362Z,10.95
2023-04-06T22:13:44.262Z,10.48
2023-04-06T22:16:30.549Z,10.60
2023-04-06T22:19:16.974Z,10.35
2023-04-06T22:22:02.853Z,10.25
2023-04-06T22:24:49.495Z,10.57
2023-04-06T22:27:35.589Z,15.48
2023-04-06T22:30:21.778Z,9.10
2023-04-06T22:33:07.871Z,11.32
2023-04-06T22:35:54.287Z,9.88
2023-04-06T22:38:40.561Z,10.35
2023-04-06T22:41:27.328Z,13.05
2023-04-06T22:44:13.575Z,10.13
2023-04-06T22:46:59.675Z,8.85
2023-04-06T22:49:46.056Z,9.52
2023-04-06T22:52:32.150Z,11.35
2023-04-06T22:55:18.374Z,9.27
2023-04-06T22:58:04.221Z,11.00
2023-04-06T23:00:50.944Z,10.52
2023-04-06T23:03:37.071Z,9.43
2023-04-06T23:06:23.489Z,10.93
2023-04-06T23:09:09.317Z,13.40
2023-04-06T23:11:56.291Z,10.68
2023-04-06T23:14:42.618Z,8.85
2023-04-06T23:17:28.556Z,9.88
2023-04-06T23:20:14.792Z,10.18
2023-04-06T23:23:00.812Z,11.18
2023-04-06T23:25:46.848Z,9.57
2023-04-06T23:28:32.799Z,10.13
2023-04-06T23:31:19.087Z,8.07
2023-04-06T23:34:05.683Z,10.40
2023-04-06T23:36:52.922Z,11.25
2023-04-06T23:39:39.542Z,7.90
2023-04-06T23:42:28.916Z,7.43
2023-04-06T23:45:15.314Z,9.18
2023-04-06T23:48:01.411Z,7.30
2023-04-06T23:50:47.835Z,8.75
2023-04-06T23:53:33.986Z,7.65
2023-04-06T23:56:20.008Z,10.55
2023-04-06T23:59:06.150Z,7.68
